Time;durP1;ratioP1;P1;durP2;ratioP2;P2;SDS_P1;SDS_P2;PMS_P1;PMS_P2;Temp;Humidity;BMP_temperature;BMP_pressure;BME280_temperature;BME280_humidity;BME280_pressure;Samples;Min_cycle;Max_cycle;Signal;HPM_P1;HPM_P2
2022/08/04 00:02:47;;;;;;;4.00;3.10;;;22.40;75.70;;;;;;5027927;28;20468;-72
2022/08/04 00:05:47;;;;;;;3.97;2.70;;;22.40;75.60;;;;;;5027042;28;20464;-72
2022/08/04 00:08:44;;;;;;;7.50;3.77;;;22.20;75.90;;;;;;5032195;28;20525;-72
2022/08/04 00:11:32;;;;;;;4.63;2.50;;;22.00;76.20;;;;;;5027542;28;20466;-71
2022/08/04 00:14:20;;;;;;;5.80;3.23;;;21.80;77.60;;;;;;5032952;28;20448;-71
2022/08/04 00:17:07;;;;;;;4.70;2.97;;;21.90;77.80;;;;;;5022398;28;21036;-71
2022/08/04 00:19:58;;;;;;;4.50;3.33;;;21.80;77.90;;;;;;5034327;28;20808;-71
2022/08/04 00:22:47;;;;;;;7.87;3.03;;;21.70;78.40;;;;;;5030148;28;20450;-71
2022/08/04 00:25:33;;;;;;;4.70;3.13;;;21.70;78.30;;;;;;5033067;28;20484;-71
2022/08/04 00:28:19;;;;;;;3.40;2.90;;;21.70;78.50;;;;;;5035740;28;20448;-72
2022/08/04 00:31:05;;;;;;;5.40;3.50;;;21.80;78.40;;;;;;5026464;28;20801;-71
2022/08/04 00:33:51;;;;;;;3.70;2.90;;;21.70;79.40;;;;;;5033369;28;20831;-72
2022/08/04 00:36:36;;;;;;;3.87;3.30;;;21.80;79.10;;;;;;5031569;28;20867;-71
2022/08/04 00:39:25;;;;;;;5.73;3.90;;;21.70;79.00;;;;;;5028295;28;20572;-71
2022/08/04 00:42:34;;;;;;;3.97;3.20;;;21.70;79.10;;;;;;5021030;28;20976;-71
2022/08/04 00:45:44;;;;;;;4.93;3.50;;;21.60;79.30;;;;;;5052243;28;20422;-72
2022/08/04 00:48:45;;;;;;;4.30;3.33;;;21.60;79.70;;;;;;5034701;28;20472;-72
2022/08/04 00:51:42;;;;;;;4.10;2.87;;;21.50;79.90;;;;;;5025752;28;20453;-72
2022/08/04 00:54:38;;;;;;;4.43;3.20;;;21.50;80.40;;;;;;5032962;28;20444;-71
2022/08/04 00:57:47;;;;;;;4.90;3.40;;;21.50;80.10;;;;;;5034903;28;20475;-72
2022/08/04 01:00:47;;;;;;;4.60;3.17;;;21.40;80.30;;;;;;5035879;28;20447;-69
2022/08/04 01:03:48;;;;;;;5.93;3.50;;;21.30;81.00;;;;;;5033091;28;20456;-71
2022/08/04 01:06:37;;;;;;;4.10;2.97;;;21.20;81.70;;;;;;5032127;28;20545;-71
2022/08/04 01:09:40;;;;;;;3.60;3.00;;;21.20;81.80;;;;;;5030992;28;20444;-71
2022/08/04 01:12:43;;;;;;;4.57;3.17;;;21.20;82.60;;;;;;5031456;28;20442;-71
2022/08/04 01:15:39;;;;;;;3.90;3.50;;;21.30;82.50;;;;;;5035045;28;20476;-71
2022/08/04 01:18:33;;;;;;;3.87;3.47;;;21.20;82.30;;;;;;5044795;28;20436;-71
2022/08/04 01:21:59;;;;;;;7.50;3.60;;;21.20;82.50;;;;;;5025120;28;20452;-72
2022/08/04 01:25:22;;;;;;;6.20;3.50;;;21.20;82.60;;;;;;5027451;28;20437;-71
2022/08/04 01:28:26;;;;;;;15.60;4.33;;;21.10;83.00;;;;;;5034125;28;20463;-71
2022/08/04 01:31:21;;;;;;;6.67;3.60;;;21.20;82.70;;;;;;5030095;28;20550;-71
2022/08/04 01:34:12;;;;;;;5.27;3.60;;;21.10;83.00;;;;;;5031857;28;20449;-72
2022/08/04 01:37:03;;;;;;;3.53;2.83;;;21.10;83.00;;;;;;5046406;28;20455;-71
2022/08/04 01:39:51;;;;;;;5.13;3.30;;;21.10;83.70;;;;;;5032851;28;21928;-69
2022/08/04 01:42:38;;;;;;;4.37;3.33;;;21.10;83.30;;;;;;5028285;28;20825;-71
2022/08/04 01:45:25;;;;;;;3.77;3.27;;;21.00;83.50;;;;;;5029400;28;20536;-71
2022/08/04 01:48:13;;;;;;;3.53;2.93;;;21.00;83.70;;;;;;5039165;28;20545;-72
2022/08/04 01:51:03;;;;;;;4.63;3.80;;;21.00;84.30;;;;;;5030957;28;20440;-71
2022/08/04 01:53:49;;;;;;;4.90;3.30;;;20.90;84.70;;;;;;5027714;28;20444;-72
2022/08/04 01:56:34;;;;;;;5.00;3.17;;;20.90;84.60;;;;;;5031446;28;20468;-71
2022/08/04 01:59:21;;;;;;;3.90;3.23;;;20.80;85.50;;;;;;5034437;28;20448;-71
2022/08/04 02:02:07;;;;;;;4.77;3.53;;;20.70;86.20;;;;;;5035259;28;20534;-71
2022/08/04 02:04:54;;;;;;;3.80;3.40;;;20.60;86.60;;;;;;5034178;28;20807;-71
2022/08/04 02:07:50;;;;;;;5.53;3.73;;;20.60;86.90;;;;;;5030698;28;20519;-71
2022/08/04 02:10:52;;;;;;;6.70;3.90;;;20.60;87.40;;;;;;5021579;28;20454;-71
2022/08/04 02:13:46;;;;;;;6.10;4.17;;;20.60;87.70;;;;;;5034603;28;20962;-71
2022/08/04 02:16:43;;;;;;;6.33;3.43;;;20.70;87.50;;;;;;5039072;28;20471;-71
2022/08/04 02:19:35;;;;;;;3.37;3.03;;;20.80;87.20;;;;;;5026013;28;20591;-71
2022/08/04 02:22:25;;;;;;;3.97;3.23;;;20.80;86.70;;;;;;5041328;28;20452;-71
2022/08/04 02:25:11;;;;;;;4.00;3.57;;;20.80;86.70;;;;;;5040681;28;20785;-71
2022/08/04 02:28:11;;;;;;;4.57;3.20;;;20.70;86.70;;;;;;5035154;28;20445;-70
2022/08/04 02:31:12;;;;;;;4.17;3.47;;;20.60;87.10;;;;;;5034052;28;20972;-70
2022/08/04 02:34:06;;;;;;;6.70;3.70;;;20.60;87.30;;;;;;5032693;28;20452;-71
2022/08/04 02:36:52;;;;;;;4.93;4.07;;;20.50;87.90;;;;;;5029800;28;20471;-70
2022/08/04 02:39:43;;;;;;;3.63;3.33;;;20.30;89.20;;;;;;5028230;28;20449;-70
2022/08/04 02:42:30;;;;;;;4.47;3.83;;;20.20;89.80;;;;;;5032034;28;20448;-70
2022/08/04 02:45:19;;;;;;;13.00;4.50;;;20.30;90.10;;;;;;5032480;28;20443;-70
2022/08/04 02:48:07;;;;;;;5.60;3.60;;;20.40;90.10;;;;;;5036671;28;20479;-70
2022/08/04 02:50:55;;;;;;;7.30;3.67;;;20.50;90.10;;;;;;5026921;28;20643;-70
2022/08/04 02:53:43;;;;;;;5.20;4.10;;;20.60;90.00;;;;;;5031862;28;20531;-70
2022/08/04 02:56:32;;;;;;;11.23;3.50;;;20.60;89.70;;;;;;5026409;28;20902;-70
2022/08/04 02:59:20;;;;;;;5.67;3.67;;;20.50;89.30;;;;;;5025558;28;20453;-70
2022/08/04 03:02:06;;;;;;;7.50;3.57;;;20.50;89.50;;;;;;5034874;28;20447;-70
2022/08/04 03:05:00;;;;;;;4.50;3.60;;;20.50;89.60;;;;;;5033339;28;20487;-70
2022/08/04 03:08:28;;;;;;;6.77;4.10;;;20.50;90.00;;;;;;5040122;28;21269;-70
2022/08/04 03:11:28;;;;;;;4.73;4.10;;;20.50;89.80;;;;;;5034262;28;20499;-70
2022/08/04 03:14:53;;;;;;;5.77;3.60;;;20.40;89.70;;;;;;5030007;28;20555;-70
2022/08/04 03:18:07;;;;;;;4.40;3.77;;;20.40;90.00;;;;;;5036809;28;20452;-70
2022/08/04 03:21:37;;;;;;;5.70;3.27;;;20.30;90.20;;;;;;5028654;28;20443;-70
2022/08/04 03:24:49;;;;;;;8.03;4.00;;;20.20;90.50;;;;;;4989835;28;20488;-70
2022/08/04 03:28:12;;;;;;;4.80;3.77;;;20.10;90.90;;;;;;5033858;28;21035;-70
2022/08/04 03:31:30;;;;;;;4.67;3.87;;;20.00;91.60;;;;;;5029703;28;20571;-70
2022/08/04 03:34:34;;;;;;;3.90;3.50;;;20.00;91.60;;;;;;5028110;28;20516;-70
2022/08/04 03:37:45;;;;;;;7.10;3.63;;;20.00;92.00;;;;;;5030169;28;20464;-70
2022/08/04 03:40:43;;;;;;;9.67;3.73;;;20.00;92.00;;;;;;5010673;28;20502;-70
2022/08/04 03:44:08;;;;;;;6.20;3.53;;;20.00;92.10;;;;;;5023729;28;20512;-70
2022/08/04 03:47:26;;;;;;;4.93;4.00;;;20.00;92.10;;;;;;5028382;28;20466;-70
2022/08/04 03:50:40;;;;;;;4.40;3.80;;;19.90;92.40;;;;;;5028003;28;20440;-70
2022/08/04 03:53:43;;;;;;;7.67;4.10;;;20.00;92.40;;;;;;5031820;28;20448;-70
2022/08/04 03:56:58;;;;;;;4.47;3.80;;;19.80;93.00;;;;;;5028089;28;20471;-71
2022/08/04 03:59:59;;;;;;;5.33;4.23;;;19.80;93.30;;;;;;5025424;28;20503;-70
2022/08/04 04:03:24;;;;;;;7.83;3.93;;;19.80;93.40;;;;;;5028328;28;20972;-70
2022/08/04 04:06:46;;;;;;;5.80;3.57;;;19.80;93.40;;;;;;5025090;28;20464;-70
2022/08/04 04:10:03;;;;;;;4.30;3.90;;;19.90;93.30;;;;;;5025261;28;20591;-70
2022/08/04 04:13:15;;;;;;;4.57;3.53;;;19.80;93.90;;;;;;5047976;28;20427;-70
2022/08/04 04:16:31;;;;;;;4.40;4.00;;;19.90;93.90;;;;;;5034038;28;21069;-70
2022/08/04 04:19:43;;;;;;;5.87;3.70;;;19.90;93.80;;;;;;5027463;28;20444;-70
2022/08/04 04:23:00;;;;;;;5.40;4.10;;;19.90;93.90;;;;;;5037561;28;20448;-70
2022/08/04 04:26:02;;;;;;;4.00;3.60;;;20.00;94.00;;;;;;5034136;28;20495;-70
2022/08/04 04:29:02;;;;;;;4.67;3.63;;;20.10;93.90;;;;;;5029624;28;20816;-70
2022/08/04 04:32:04;;;;;;;4.53;4.00;;;20.00;94.00;;;;;;5032770;28;20523;-70
2022/08/04 04:35:08;;;;;;;5.77;3.80;;;19.90;94.00;;;;;;5029310;28;20444;-70
2022/08/04 04:38:21;;;;;;;4.30;3.53;;;20.00;94.10;;;;;;5025596;28;20971;-69
2022/08/04 04:41:25;;;;;;;5.40;3.97;;;19.90;94.20;;;;;;5031247;28;20590;-70
2022/08/04 04:44:35;;;;;;;5.87;3.70;;;19.90;94.70;;;;;;5031384;28;20463;-70
2022/08/04 04:47:32;;;;;;;4.53;3.80;;;19.90;95.10;;;;;;5020027;28;20535;-70
2022/08/04 04:50:28;;;;;;;4.90;3.47;;;19.90;95.10;;;;;;5033948;28;20432;-70
2022/08/04 04:53:33;;;;;;;5.00;3.30;;;20.00;95.20;;;;;;5034533;28;20429;-70
2022/08/04 04:56:27;;;;;;;5.03;3.40;;;20.10;95.20;;;;;;5026250;28;20467;-70
2022/08/04 04:59:17;;;;;;;6.73;3.10;;;20.10;95.20;;;;;;5025549;28;20444;-70
2022/08/04 05:02:28;;;;;;;5.47;3.27;;;20.10;95.20;;;;;;5029560;28;21077;-70
2022/08/04 05:05:30;;;;;;;4.23;3.53;;;20.20;95.10;;;;;;5043480;28;20467;-70
2022/08/04 05:08:42;;;;;;;5.30;3.43;;;20.20;95.20;;;;;;5029705;28;21161;-70
2022/08/04 05:11:46;;;;;;;5.57;3.57;;;20.20;95.20;;;;;;5032743;28;20453;-70
2022/08/04 05:14:35;;;;;;;3.90;3.50;;;20.30;95.30;;;;;;5029961;28;20456;-70
2022/08/04 05:17:25;;;;;;;6.20;4.00;;;20.40;95.50;;;;;;5031719;28;21043;-70
2022/08/04 05:20:20;;;;;;;4.30;3.90;;;20.50;95.70;;;;;;5036583;28;20456;-70
2022/08/04 05:23:13;;;;;;;5.13;3.60;;;20.60;95.40;;;;;;5036651;28;20977;-70
2022/08/04 05:26:02;;;;;;;5.30;4.00;;;20.60;95.40;;;;;;5030326;28;20972;-70
2022/08/04 05:28:53;;;;;;;8.53;3.80;;;20.60;95.40;;;;;;5030446;28;20969;-70
2022/08/04 05:31:44;;;;;;;5.80;4.00;;;20.80;95.00;;;;;;5025180;28;20474;-70
2022/08/04 05:34:33;;;;;;;4.60;3.93;;;20.90;94.70;;;;;;5037265;28;20952;-70
2022/08/04 05:37:22;;;;;;;5.07;3.63;;;21.10;94.80;;;;;;5033731;28;20476;-70
2022/08/04 05:40:12;;;;;;;5.00;3.87;;;21.20;94.80;;;;;;5034462;28;21103;-70
2022/08/04 05:43:00;;;;;;;4.53;3.70;;;21.20;94.60;;;;;;5031433;28;20833;-70
2022/08/04 05:45:48;;;;;;;5.10;3.80;;;21.40;94.80;;;;;;5033051;28;20843;-70
2022/08/04 05:48:34;;;;;;;4.97;4.47;;;21.40;95.00;;;;;;5026679;28;20502;-70
2022/08/04 05:51:20;;;;;;;9.30;4.10;;;21.50;94.90;;;;;;5040466;28;20444;-70
2022/08/04 05:54:06;;;;;;;5.40;4.00;;;21.60;94.30;;;;;;5037826;28;20953;-70
2022/08/04 05:56:55;;;;;;;5.50;4.10;;;21.70;93.90;;;;;;5036433;28;20455;-70
2022/08/04 05:59:45;;;;;;;5.83;3.30;;;21.90;94.40;;;;;;5024152;28;20961;-70
2022/08/04 06:02:31;;;;;;;4.90;3.83;;;22.00;94.30;;;;;;5030651;28;20449;-71
2022/08/04 06:05:17;;;;;;;4.50;4.00;;;22.10;94.50;;;;;;5030381;28;20460;-72
2022/08/04 06:08:04;;;;;;;8.93;4.50;;;22.30;94.80;;;;;;5025613;28;20439;-70
2022/08/04 06:10:51;;;;;;;3.90;3.50;;;22.40;94.00;;;;;;5042815;28;20800;-71
2022/08/04 06:13:43;;;;;;;7.50;4.40;;;22.50;93.90;;;;;;5045319;28;20888;-71
2022/08/04 06:16:35;;;;;;;5.50;4.00;;;22.70;93.60;;;;;;5046208;28;20993;-71
2022/08/04 06:19:24;;;;;;;10.33;3.60;;;22.80;93.40;;;;;;5041211;28;20822;-71
2022/08/04 06:22:12;;;;;;;4.27;3.80;;;23.00;93.70;;;;;;5045878;28;20438;-71
2022/08/04 06:24:59;;;;;;;7.77;4.37;;;23.10;93.70;;;;;;5041503;28;20472;-71
2022/08/04 06:27:45;;;;;;;6.60;3.80;;;23.30;93.30;;;;;;5032756;28;20966;-71
2022/08/04 06:30:34;;;;;;;5.23;3.60;;;23.40;92.50;;;;;;5044517;28;20428;-71
2022/08/04 06:33:26;;;;;;;16.47;4.13;;;23.50;92.60;;;;;;5038204;28;20424;-71
2022/08/04 06:36:12;;;;;;;5.80;3.70;;;23.70;92.00;;;;;;5046474;28;20447;-71
2022/08/04 06:39:00;;;;;;;5.70;3.50;;;23.80;91.70;;;;;;5039287;28;20844;-71
2022/08/04 06:41:46;;;;;;;5.83;4.70;;;23.90;90.70;;;;;;5047541;28;20608;-71
2022/08/04 06:44:34;;;;;;;6.53;4.23;;;24.00;91.10;;;;;;5037633;28;20514;-70
2022/08/04 06:47:22;;;;;;;8.63;3.63;;;24.20;90.70;;;;;;5035249;28;20472;-71
2022/08/04 06:50:10;;;;;;;5.13;3.17;;;24.40;90.80;;;;;;5037195;28;20463;-71
2022/08/04 06:52:56;;;;;;;4.40;3.80;;;24.50;90.20;;;;;;5051366;28;20432;-71
2022/08/04 06:55:45;;;;;;;6.00;3.27;;;24.60;87.60;;;;;;5048399;28;20972;-71
2022/08/04 06:58:32;;;;;;;3.93;3.10;;;24.80;85.20;;;;;;5037909;28;20431;-71
2022/08/04 07:01:20;;;;;;;3.40;2.73;;;24.90;86.80;;;;;;5044764;28;20436;-71
2022/08/04 07:04:07;;;;;;;4.13;3.00;;;25.10;84.30;;;;;;5034199;28;20417;-71
2022/08/04 07:06:53;;;;;;;3.80;2.60;;;25.20;86.10;;;;;;5037923;28;20598;-71
2022/08/04 07:09:40;;;;;;;6.43;2.67;;;25.40;77.50;;;;;;5043009;28;20431;-71
2022/08/04 07:12:27;;;;;;;6.37;2.00;;;25.60;76.00;;;;;;5051512;28;20438;-71
2022/08/04 07:15:14;;;;;;;6.60;2.10;;;25.70;70.30;;;;;;5049240;28;20475;-71
2022/08/04 07:18:02;;;;;;;5.00;2.30;;;25.80;70.30;;;;;;5034386;28;20443;-71
2022/08/04 07:20:49;;;;;;;3.30;1.87;;;26.00;69.90;;;;;;5048801;28;20936;-71
2022/08/04 07:23:36;;;;;;;4.10;2.40;;;26.10;65.20;;;;;;5050063;28;20436;-71
2022/08/04 07:26:27;;;;;;;5.00;2.90;;;26.30;62.90;;;;;;5035731;28;20484;-71
2022/08/04 07:29:13;;;;;;;3.20;2.20;;;26.30;66.10;;;;;;5038310;28;20932;-71
2022/08/04 07:32:00;;;;;;;9.17;4.90;;;26.50;69.90;;;;;;5033110;28;20949;-71
2022/08/04 07:34:46;;;;;;;5.40;2.73;;;26.60;65.00;;;;;;5042429;28;20444;-71
2022/08/04 07:37:34;;;;;;;4.80;2.57;;;26.70;54.00;;;;;;5029720;28;20531;-71
2022/08/04 07:40:21;;;;;;;7.37;1.90;;;26.90;57.50;;;;;;5046151;28;20502;-71
2022/08/04 07:43:07;;;;;;;10.37;1.90;;;27.10;40.70;;;;;;5036421;28;20424;-71
2022/08/04 07:45:52;;;;;;;6.50;2.13;;;27.20;44.90;;;;;;5037120;28;20614;-71
2022/08/04 07:48:38;;;;;;;4.07;1.87;;;27.40;43.50;;;;;;5045177;28;20793;-71
2022/08/04 07:51:24;;;;;;;3.73;2.20;;;27.50;39.30;;;;;;5046471;28;20431;-71
2022/08/04 07:54:13;;;;;;;3.30;2.17;;;27.70;36.70;;;;;;5038026;28;20641;-72
2022/08/04 07:56:59;;;;;;;3.80;2.50;;;27.80;36.10;;;;;;5030777;28;20841;-71
2022/08/04 07:59:45;;;;;;;3.63;2.03;;;28.00;33.50;;;;;;5042351;28;20656;-71
2022/08/04 08:02:31;;;;;;;4.03;1.63;;;28.10;34.40;;;;;;5042508;28;20427;-71
2022/08/04 08:05:19;;;;;;;2.87;2.00;;;28.30;33.30;;;;;;5033608;28;20919;-71
2022/08/04 08:08:05;;;;;;;4.57;2.17;;;28.40;33.30;;;;;;5041699;28;20419;-71
2022/08/04 08:10:52;;;;;;;2.90;1.83;;;28.50;33.40;;;;;;5042833;28;20470;-71
2022/08/04 08:13:39;;;;;;;3.43;2.37;;;28.60;33.50;;;;;;5049517;28;20932;-71
2022/08/04 08:16:27;;;;;;;4.27;2.60;;;28.70;31.60;;;;;;5039127;28;20539;-71
2022/08/04 08:19:13;;;;;;;3.57;2.10;;;28.80;32.50;;;;;;5044483;28;20515;-71
2022/08/04 08:21:59;;;;;;;5.40;1.93;;;28.90;31.60;;;;;;5043788;28;20498;-71
2022/08/04 08:24:44;;;;;;;9.40;2.53;;;28.90;30.80;;;;;;5045115;28;20521;-71
2022/08/04 08:27:43;;;;;;;3.13;2.00;;;29.00;33.20;;;;;;5034771;22;21031;-76
2022/08/04 08:33:48;;;;;;;5.50;2.97;;;29.10;31.40;;;;;;5040766;28;20486;-76
2022/08/04 08:36:46;;;;;;;4.40;2.23;;;29.20;32.50;;;;;;5033569;28;20464;-76
2022/08/04 08:39:42;;;;;;;3.40;2.40;;;29.20;34.00;;;;;;5046284;28;20444;-76
2022/08/04 08:43:10;;;;;;;3.27;2.50;;;29.30;35.80;;;;;;5051735;28;20426;-76
2022/08/04 08:46:35;;;;;;;4.50;2.30;;;29.50;33.10;;;;;;5023024;28;20529;-76
2022/08/04 08:49:56;;;;;;;4.23;2.60;;;29.70;32.90;;;;;;5024371;28;20440;-76
2022/08/04 08:53:17;;;;;;;6.00;2.83;;;29.80;31.00;;;;;;5047913;28;20999;-76
2022/08/04 08:56:52;;;;;;;4.30;3.60;;;29.80;30.00;;;;;;5021576;28;20964;-76
2022/08/04 09:00:01;;;;;;;5.40;2.80;;;29.90;31.30;;;;;;5044144;28;20435;-76
2022/08/04 09:03:41;;;;;;;5.57;3.30;;;30.00;29.40;;;;;;5047109;28;20558;-76
2022/08/04 09:07:09;;;;;;;8.30;3.47;;;30.00;30.90;;;;;;4967942;28;20550;-76
2022/08/04 09:10:19;;;;;;;5.70;3.23;;;30.10;30.50;;;;;;5045266;28;20473;-76
2022/08/04 09:13:32;;;;;;;7.07;3.60;;;30.20;29.40;;;;;;5050161;28;20427;-76
2022/08/04 09:16:34;;;;;;;6.33;2.90;;;30.30;31.50;;;;;;5032548;28;20463;-76
2022/08/04 09:19:26;;;;;;;7.60;2.87;;;30.40;30.90;;;;;;5043386;28;20438;-76
2022/08/04 09:22:33;;;;;;;6.07;3.40;;;30.50;32.00;;;;;;5041552;28;20482;-76
2022/08/04 09:25:31;;;;;;;7.87;2.77;;;30.60;28.90;;;;;;5034902;28;20628;-76
2022/08/04 09:28:22;;;;;;;4.67;2.70;;;30.70;30.00;;;;;;5048191;28;21018;-76
2022/08/04 09:31:13;;;;;;;5.63;3.00;;;30.80;28.70;;;;;;5044152;28;20978;-76
2022/08/04 09:34:09;;;;;;;6.67;3.73;;;30.90;28.70;;;;;;5035406;28;20783;-76
2022/08/04 09:37:04;;;;;;;6.80;2.70;;;31.00;28.00;;;;;;5033204;28;20435;-76
2022/08/04 09:40:01;;;;;;;5.47;3.20;;;31.10;26.80;;;;;;5048694;28;20444;-76
2022/08/04 09:42:58;;;;;;;6.57;2.70;;;31.20;26.80;;;;;;5040197;28;20472;-76
2022/08/04 09:45:50;;;;;;;4.70;2.47;;;31.30;26.10;;;;;;5031753;28;20464;-76
2022/08/04 09:48:44;;;;;;;11.03;3.17;;;31.30;25.90;;;;;;5047520;28;20427;-76
2022/08/04 09:51:57;;;;;;;6.30;2.67;;;31.30;25.70;;;;;;5040419;28;20448;-77
2022/08/04 09:54:51;;;;;;;5.80;3.10;;;31.40;25.60;;;;;;5037340;28;20532;-76
2022/08/04 09:57:49;;;;;;;4.60;2.30;;;31.40;25.90;;;;;;5036491;28;20459;-76
2022/08/04 10:00:41;;;;;;;3.57;2.67;;;31.50;24.60;;;;;;5044788;28;20904;-76
2022/08/04 10:03:32;;;;;;;3.90;2.60;;;31.50;24.60;;;;;;5047957;28;20431;-76
2022/08/04 10:07:18;;;;;;;5.70;2.70;;;31.60;25.00;;;;;;5062756;22;20893;-76
2022/08/04 10:10:36;;;;;;;3.67;2.53;;;31.70;24.70;;;;;;5059887;28;20435;-76
2022/08/04 10:14:05;;;;;;;5.70;2.50;;;31.80;25.70;;;;;;5062237;28;20446;-76
2022/08/04 10:17:13;;;;;;;5.63;2.30;;;32.00;25.40;;;;;;5068647;28;20980;-76
2022/08/04 10:20:31;;;;;;;8.47;2.60;;;32.10;25.70;;;;;;5057548;28;20434;-76
2022/08/04 10:23:34;;;;;;;5.63;2.67;;;32.20;23.60;;;;;;5052952;28;20428;-76
2022/08/04 10:26:42;;;;;;;4.23;2.93;;;32.30;23.60;;;;;;5048558;28;20486;-76
2022/08/04 10:29:54;;;;;;;5.50;2.70;;;32.30;24.50;;;;;;5059808;28;20428;-76
2022/08/04 10:32:49;;;;;;;9.80;2.70;;;32.40;24.00;;;;;;5061966;28;20489;-76
2022/08/04 10:35:46;;;;;;;5.10;2.73;;;32.50;24.40;;;;;;5056436;28;20524;-76
2022/08/04 10:39:07;;;;;;;5.70;2.73;;;32.60;23.90;;;;;;5068030;28;20930;-76
2022/08/04 10:42:35;;;;;;;8.83;2.53;;;32.60;23.80;;;;;;5065020;28;20506;-76
2022/08/04 10:46:06;;;;;;;4.23;2.80;;;32.70;24.90;;;;;;5050745;28;20503;-76
2022/08/04 10:49:29;;;;;;;4.60;2.43;;;32.80;23.90;;;;;;5061309;28;20431;-76
2022/08/04 10:59:24;;;;;;;4.70;2.60;;;33.10;23.30;;;;;;5058853;28;20435;-76
2022/08/04 11:02:52;;;;;;;5.67;2.67;;;33.20;24.20;;;;;;5070093;28;20423;-76
2022/08/04 11:06:17;;;;;;;;;;;;;;;;;;;;;
2022/08/04 11:13:39;;;;;;;5.80;2.40;;;33.40;20.70;;;;;;4950613;28;20435;-76
2022/08/04 11:16:52;;;;;;;4.27;2.80;;;33.40;19.70;;;;;;4929827;28;20872;-76
2022/08/04 11:23:31;;;;;;;5.70;3.00;;;33.60;19.50;;;;;;5042096;28;20541;-76
2022/08/04 11:26:24;;;;;;;3.80;2.50;;;33.60;20.40;;;;;;5053548;28;20474;-76
2022/08/04 11:29:26;;;;;;;4.00;2.07;;;33.70;20.00;;;;;;5058979;28;20427;-77
2022/08/04 11:32:19;;;;;;;5.67;2.43;;;33.80;19.80;;;;;;5070813;28;20422;-76
2022/08/04 11:35:09;;;;;;;5.53;2.30;;;33.80;22.00;;;;;;5057863;28;20443;-76
2022/08/04 11:41:15;;;;;;;4.10;2.43;;;34.00;20.40;;;;;;5062893;28;20427;-76
2022/08/04 11:44:04;;;;;;;4.27;2.10;;;34.10;19.00;;;;;;5041952;28;20467;-76
2022/08/04 11:47:05;;;;;;;3.00;2.20;;;34.30;19.70;;;;;;5066059;28;20447;-76
2022/08/04 11:49:58;;;;;;;6.63;2.20;;;34.30;18.90;;;;;;5069649;28;20433;-76
2022/08/04 11:52:58;;;;;;;6.47;2.33;;;34.40;19.00;;;;;;5060727;28;20445;-74
2022/08/04 11:56:00;;;;;;;6.13;2.83;;;34.50;18.20;;;;;;5061171;28;20530;-74
2022/08/04 11:58:46;;;;;;;4.90;2.00;;;34.60;18.40;;;;;;5066254;28;20425;-75
2022/08/04 12:01:41;;;;;;;6.73;1.80;;;34.60;18.40;;;;;;5070952;28;20489;-75
2022/08/04 12:04:37;;;;;;;4.10;2.33;;;34.70;17.50;;;;;;5050589;28;20442;-74
2022/08/04 12:07:41;;;;;;;2.57;1.70;;;34.80;17.00;;;;;;5061877;28;20435;-74
2022/08/04 12:10:41;;;;;;;3.17;1.97;;;34.90;18.30;;;;;;5062656;28;20500;-74
2022/08/04 12:13:34;;;;;;;4.43;1.70;;;35.00;18.50;;;;;;5047124;28;20606;-74
2022/08/04 12:16:25;;;;;;;3.00;2.20;;;35.10;17.00;;;;;;5062214;28;20548;-74
2022/08/04 12:19:18;;;;;;;4.90;2.23;;;35.10;15.70;;;;;;5067116;28;20493;-74
2022/08/04 12:22:11;;;;;;;5.37;1.90;;;35.20;16.30;;;;;;5058399;28;20423;-74
2022/08/04 12:25:02;;;;;;;3.43;1.97;;;35.10;16.60;;;;;;5064755;28;20427;-74
2022/08/04 12:27:53;;;;;;;4.00;2.17;;;35.10;15.90;;;;;;5069893;28;20573;-74
2022/08/04 12:30:46;;;;;;;2.77;1.70;;;35.30;15.70;;;;;;5067419;28;20431;-74
2022/08/04 12:33:38;;;;;;;10.50;2.33;;;35.30;15.30;;;;;;5057132;28;20459;-74
2022/08/04 12:36:31;;;;;;;4.90;1.83;;;35.30;15.90;;;;;;5072585;28;20486;-74
2022/08/04 12:39:20;;;;;;;4.07;2.17;;;35.40;17.00;;;;;;5062812;28;20970;-74
2022/08/04 12:42:15;;;;;;;3.87;2.37;;;35.50;17.50;;;;;;5060589;28;20954;-74
2022/08/04 12:45:07;;;;;;;9.23;2.30;;;35.60;16.60;;;;;;5063075;28;20475;-74
2022/08/04 12:47:56;;;;;;;4.70;2.00;;;35.70;16.10;;;;;;5059982;28;20435;-74
2022/08/04 12:50:46;;;;;;;3.37;2.00;;;35.80;15.50;;;;;;5068929;28;20505;-74
2022/08/04 12:53:35;;;;;;;4.60;2.43;;;35.90;16.80;;;;;;5058594;28;20446;-74
2022/08/04 12:56:28;;;;;;;6.70;2.30;;;36.00;15.30;;;;;;5060024;28;20486;-74
2022/08/04 12:59:14;;;;;;;5.93;2.20;;;36.20;14.90;;;;;;5062294;28;20431;-74
2022/08/04 13:02:00;;;;;;;3.90;2.20;;;36.30;14.10;;;;;;5062131;28;20567;-74
2022/08/04 13:04:47;;;;;;;3.43;1.77;;;36.40;14.60;;;;;;5064019;28;20563;-74
2022/08/04 13:07:38;;;;;;;4.30;1.93;;;36.60;13.70;;;;;;5068827;28;20504;-74
2022/08/04 13:10:26;;;;;;;10.07;1.63;;;36.60;14.30;;;;;;5069240;28;20789;-74
2022/08/04 13:13:19;;;;;;;2.90;1.40;;;36.50;11.60;;;;;;5048481;28;20987;-75
2022/08/04 13:16:07;;;;;;;5.07;1.50;;;36.50;13.90;;;;;;5062166;28;20561;-74
2022/08/04 13:18:54;;;;;;;10.20;1.37;;;36.70;12.80;;;;;;5071626;28;20493;-74
2022/08/04 13:21:46;;;;;;;4.67;1.70;;;36.90;13.50;;;;;;5063630;28;20483;-76
2022/08/04 13:24:34;;;;;;;2.80;1.57;;;37.00;13.70;;;;;;5060742;28;20498;-74
2022/08/04 13:27:21;;;;;;;3.13;1.80;;;37.20;12.20;;;;;;5061157;28;21174;-75
2022/08/04 13:30:11;;;;;;;11.63;2.00;;;37.30;12.50;;;;;;5060446;28;20489;-74
2022/08/04 13:32:59;;;;;;;3.20;1.93;;;37.40;12.90;;;;;;5054805;28;20581;-74
2022/08/04 13:35:48;;;;;;;4.20;1.93;;;37.50;11.30;;;;;;5068346;28;20524;-74
2022/08/04 13:38:34;;;;;;;5.77;1.93;;;37.50;11.40;;;;;;5066360;28;20428;-74
2022/08/04 13:41:22;;;;;;;5.17;1.80;;;37.60;12.10;;;;;;5069243;28;20431;-74
2022/08/04 13:44:10;;;;;;;3.53;1.87;;;37.70;12.70;;;;;;5057441;28;20496;-74
2022/08/04 13:47:01;;;;;;;4.73;2.40;;;37.80;11.60;;;;;;5063461;28;20510;-74
2022/08/04 13:50:13;;;;;;;2.90;1.80;;;37.70;12.50;;;;;;5068772;28;20420;-74
2022/08/04 13:53:02;;;;;;;3.57;1.70;;;37.80;11.50;;;;;;5054181;28;20442;-74
2022/08/04 13:55:48;;;;;;;4.27;2.27;;;37.90;13.30;;;;;;5069110;28;20422;-74
2022/08/04 13:58:39;;;;;;;10.33;1.87;;;38.00;11.20;;;;;;5069950;28;20439;-74
2022/08/04 14:01:27;;;;;;;5.70;2.30;;;38.00;11.00;;;;;;5057510;28;20436;-74
2022/08/04 14:04:20;;;;;;;3.23;1.83;;;38.00;11.70;;;;;;5060256;28;20423;-74
2022/08/04 14:07:12;;;;;;;2.73;1.67;;;38.00;11.70;;;;;;5071156;28;20435;-74
2022/08/04 14:09:58;;;;;;;2.77;1.60;;;38.00;12.50;;;;;;5062615;28;20439;-74
2022/08/04 14:12:45;;;;;;;3.53;2.00;;;38.10;12.60;;;;;;5051282;28;20976;-74
2022/08/04 14:15:34;;;;;;;3.23;1.57;;;38.30;12.80;;;;;;5058190;28;20943;-74
2022/08/04 14:18:21;;;;;;;5.40;1.83;;;38.40;12.20;;;;;;5062197;28;20987;-75
2022/08/04 14:21:10;;;;;;;3.33;1.83;;;38.30;12.00;;;;;;5065342;28;20423;-74
2022/08/04 14:23:57;;;;;;;3.77;1.93;;;38.10;11.10;;;;;;5063230;28;20790;-74
2022/08/04 14:26:42;;;;;;;4.90;1.90;;;38.00;11.50;;;;;;5064149;28;20446;-74
2022/08/04 14:29:37;;;;;;;3.47;2.13;;;37.80;11.90;;;;;;5061871;28;20439;-74
2022/08/04 14:32:23;;;;;;;3.80;1.80;;;37.80;13.30;;;;;;5050923;28;20455;-74
2022/08/04 14:35:11;;;;;;;5.37;1.97;;;37.70;11.30;;;;;;5056327;28;20491;-74
2022/08/04 14:37:59;;;;;;;3.00;2.00;;;37.70;12.20;;;;;;5065691;28;20591;-74
2022/08/04 14:40:45;;;;;;;4.20;1.90;;;37.40;10.70;;;;;;5070334;28;20996;-74
2022/08/04 14:43:31;;;;;;;4.93;1.73;;;37.50;11.10;;;;;;5053295;28;20439;-74
2022/08/04 14:46:16;;;;;;;5.77;1.77;;;37.40;10.60;;;;;;5049297;28;20443;-74
2022/08/04 14:49:07;;;;;;;3.70;2.00;;;37.50;11.10;;;;;;5048906;28;20836;-74
2022/08/04 14:51:56;;;;;;;4.70;1.90;;;37.60;11.90;;;;;;5060739;28;20994;-74
2022/08/04 14:54:43;;;;;;;3.37;2.10;;;37.50;10.80;;;;;;5067362;28;20419;-74
2022/08/04 14:57:28;;;;;;;4.63;1.80;;;37.20;11.00;;;;;;5069303;28;21053;-74
2022/08/04 15:00:25;;;;;;;7.13;1.90;;;36.90;11.10;;;;;;5056734;28;21011;-74
2022/08/04 15:03:11;;;;;;;3.43;1.83;;;36.90;13.10;;;;;;5056354;28;20467;-74
2022/08/04 15:05:58;;;;;;;8.47;1.97;;;37.00;12.40;;;;;;5070630;28;20806;-74
2022/08/04 15:08:44;;;;;;;9.63;2.00;;;37.00;12.20;;;;;;5070156;28;20799;-74
2022/08/04 15:11:31;;;;;;;4.33;1.73;;;36.90;13.40;;;;;;5054297;28;20455;-74
2022/08/04 15:14:17;;;;;;;3.23;1.67;;;36.60;13.60;;;;;;5059627;28;20414;-74
2022/08/04 15:17:03;;;;;;;3.20;1.90;;;36.30;13.20;;;;;;5056329;28;20503;-74
2022/08/04 15:19:49;;;;;;;5.63;1.90;;;36.10;14.00;;;;;;5067370;28;20448;-74
2022/08/04 15:22:35;;;;;;;7.63;2.47;;;35.90;15.80;;;;;;5046730;28;20510;-74
2022/08/04 15:25:20;;;;;;;5.40;3.80;;;36.00;17.30;;;;;;5066063;28;20553;-74
2022/08/04 15:28:12;;;;;;;10.13;2.83;;;36.10;17.60;;;;;;5067435;28;20506;-74
2022/08/04 15:31:00;;;;;;;4.90;2.40;;;36.20;18.80;;;;;;5062518;28;20824;-74
2022/08/04 15:33:47;;;;;;;3.37;2.00;;;36.40;16.80;;;;;;5062388;28;21051;-74
2022/08/04 15:36:39;;;;;;;4.13;1.70;;;36.50;17.60;;;;;;5059721;28;20454;-74
2022/08/04 15:39:34;;;;;;;5.50;2.13;;;36.60;16.20;;;;;;5056257;28;20423;-74